Flight Track Log - Related Links

Times and Time Zones

All times are in EDT time to prevent confusion due to time zone crossing. See the SWA55 flight status page for this flight to view local times or setup timezone preferences in your user account.

Time Position Orientation Groundspeed Altitude Reporting Facility
EDT Latitude Longitude Course Direction KTS MPH feet Rate Location/Type
Wed 12:52:55 PM 47.4278 -122.3078 180° South 195 224 1,300  Level Seattle Center
Wed 12:54:02 PM 47.3681 -122.3081 180° South 202 232 3,500 2,500 Climbing Seattle Center
Wed 12:55:31 PM 47.2764 -122.3086 168° South 234 269 7,800 2,720 Climbing Seattle Center
Wed 12:56:32 PM 47.2125 -122.2883 142° Southeast 258 297 10,300 1,574 Climbing Seattle Center
Wed 12:57:33 PM 47.1447 -122.2111 159° South 325 374 11,000 1,574 Climbing Seattle Center
Wed 12:58:34 PM 47.0572 -122.1625 164° South 336 387 13,500 2,311 Climbing Seattle Center
Wed 12:59:35 PM 46.9669 -122.1250 165° South 342 394 15,700 2,049 Climbing Seattle Center
Wed 01:00:37 PM 46.8719 -122.0878 166° South 354 407 17,700 2,244 Climbing Seattle Center
Wed 01:01:38 PM 46.7525 -122.0428 165° South 370 426 20,300 2,016 Climbing Seattle Center
Wed 01:02:39 PM 46.6519 -122.0036 165° South 377 434 21,800 1,475 Climbing Seattle Center
Wed 01:03:40 PM 46.5478 -121.9642 165° South 388 447 23,300 1,426 Climbing Seattle Center
Wed 01:04:41 PM 46.4417 -121.9225 165° South 396 456 24,700 1,512 Climbing Seattle Center
Wed 01:05:43 PM 46.3344 -121.8806 165° South 401 461 26,400 1,707 Climbing Seattle Center
Wed 01:06:44 PM 46.2286 -121.8408 165° South 399 459 28,200 1,672 Climbing Seattle Center
Wed 01:07:45 PM 46.1186 -121.7981 166° South 388 447 29,800 1,475 Climbing Seattle Center
Wed 01:08:46 PM 46.0167 -121.7606 165° South 382 440 31,200 1,279 Climbing Seattle Center
Wed 01:09:47 PM 45.9175 -121.7219 165° South 376 433 32,400 1,171 Climbing Seattle Center
Wed 01:10:49 PM 45.8181 -121.6842 165° South 374 430 33,600 927 Climbing Seattle Center
Wed 01:11:50 PM 45.6975 -121.6383 166° South 375 432 34,300 689 Climbing Seattle Center
Wed 01:12:51 PM 45.5961 -121.6011 166° South 378 435 35,000 344 Climbing Seattle Center
Wed 01:13:52 PM 45.4933 -121.5642 165° South 381 438 35,000  Level Seattle Center
Wed 01:14:53 PM 45.3903 -121.5256 165° South 385 443 35,000  Level Seattle Center
Wed 01:15:55 PM 45.2875 -121.4867 165° South 386 444 35,000  Level Seattle Center
Wed 01:16:56 PM 45.1856 -121.4486 165° South 383 441 35,000  Level Seattle Center
Wed 01:17:57 PM 45.0850 -121.4114 166° South 379 436 35,000  Level Seattle Center
Wed 01:18:58 PM 44.9839 -121.3750 165° South 379 436 35,000  Level Seattle Center
Wed 01:19:59 PM 44.8644 -121.3314 166° South 375 432 35,000  Level Seattle Center
Wed 01:21:00 PM 44.7653 -121.2953 166° South 372 428 35,000  Level Seattle Center
Wed 01:22:01 PM 44.6658 -121.2597 165° South 372 428 35,000  Level Seattle Center
Wed 01:23:02 PM 44.5569 -121.2200 166° South 372 428 35,000  Level Seattle Center
Wed 01:24:04 PM 44.4558 -121.1842 166° South 374 430 35,000  Level Seattle Center
Wed 01:25:05 PM 44.3547 -121.1486 165° South 373 429 35,000  Level Seattle Center
Wed 01:26:06 PM 44.2675 -121.1167 166° South 374 430 35,000  Level Seattle Center
Wed 01:27:07 PM 44.1461 -121.0747 166° South 376 433 35,000  Level Seattle Center
Wed 01:28:08 PM 44.0444 -121.0394 166° South 378 435 35,000  Level Seattle Center
Wed 01:29:09 PM 43.9444 -121.0039 166° South 376 433 35,000  Level Seattle Center
Wed 01:30:10 PM 43.8442 -120.9683 166° South 375 432 35,000  Level Seattle Center
Wed 01:31:11 PM 43.7439 -120.9344 166° South 374 430 35,000  Level Seattle Center
Wed 01:32:12 PM 43.6417 -120.8989 166° South 379 436 35,000  Level Seattle Center
Wed 01:33:14 PM 43.5264 -120.8597 165° South 381 438 35,000  Level Seattle Center
Wed 01:34:15 PM 43.4236 -120.8231 167° South 381 438 35,000  Level Seattle Center
Wed 01:35:16 PM 43.3233 -120.7906 166° South 374 430 35,000  Level Seattle Center
Wed 01:36:17 PM 43.2225 -120.7556 166° South 373 429 35,000  Level Seattle Center
Wed 01:37:18 PM 43.1208 -120.7206 166° South 375 432 35,000  Level Seattle Center
Wed 01:38:19 PM 43.0194 -120.6864 166° South 374 430 35,000  Level Seattle Center
Wed 01:39:21 PM 42.9183 -120.6525 166° South 374 430 35,000  Level Seattle Center
Wed 01:40:22 PM 42.8181 -120.6186 165° South 370 426 35,000  Level Seattle Center
Wed 01:41:23 PM 42.7392 -120.5894 165° South 369 425 35,000  Level Seattle Center
Wed 01:42:24 PM 42.6183 -120.5447 169° South 372 428 35,000  Level Seattle Center
Wed 01:43:25 PM 42.5167 -120.5167 167° South 373 429 35,000  Level Seattle Center
Wed 01:44:26 PM 42.4153 -120.4853 167° South 372 428 35,000  Level Seattle Center
Wed 01:45:28 PM 42.2953 -120.4489 167° South 369 425 35,000  Level Seattle Center
Wed 01:46:29 PM 42.1947 -120.4186 168° South 369 425 35,000  Level Seattle Center
Wed 01:47:30 PM 42.0950 -120.3892 167° South 367 422 35,000  Level Seattle Center
Wed 01:49:32 PM 41.8942 -120.3283 168° South 369 425 35,000  Level Seattle Center
Wed 01:50:34 PM 41.7897 -120.2975 168° South 377 434 35,000  Level Seattle Center
Wed 01:51:35 PM 41.6842 -120.2672 167° South 382 440 35,000  Level Seattle Center
Wed 01:52:36 PM 41.5800 -120.2361 168° South 384 442 35,000  Level Seattle Center
Wed 01:53:37 PM 41.4778 -120.2069 168° South 380 437 35,000  Level Seattle Center
Wed 01:54:39 PM 41.3764 -120.1781 167° South 374 430 35,000  Level Seattle Center
Wed 01:55:40 PM 41.2758 -120.1481 168° South 372 428 35,000  Level Seattle Center
Wed 01:56:41 PM 41.1758 -120.1197 163° South 369 425 35,000  Level Seattle Center
Wed 01:57:42 PM 41.0567 -120.0711 161° South 375 432 35,000  Level Seattle Center
Wed 01:58:43 PM 40.9592 -120.0264 161° South 374 430 35,000  Level Seattle Center
Wed 01:59:45 PM 40.8611 -119.9828 161° South 372 428 35,000  Level Seattle Center
Wed 02:00:46 PM 40.7636 -119.9392 162° South 371 427 35,000  Level Seattle Center
Wed 02:01:47 PM 40.6667 -119.8967 162° South 368 423 35,000  Level Seattle Center
Wed 02:02:48 PM 40.5708 -119.8547 162° South 367 422 35,000  Level Seattle Center
Wed 02:03:49 PM 40.4744 -119.8131 161° South 366 421 35,000  Level Seattle Center
Wed 02:04:50 PM 40.3775 -119.7700 161° South 366 421 35,000  Level Seattle Center
Wed 02:05:51 PM 40.2811 -119.7275 162° South 366 421 35,000  Level Seattle Center
Wed 02:06:53 PM 40.1831 -119.6850 162° South 369 425 35,000  Level Seattle Center
Wed 02:07:54 PM 40.0653 -119.6350 162° South 370 426 35,000  Level Seattle Center
Wed 02:09:08 PM 39.9464 -119.5842 161° South 368 423 35,000  Level Oakland Center
Wed 02:10:08 PM 39.8458 -119.5403 163° South 368 423 35,000  Level Oakland Center
Wed 02:11:09 PM 39.7453 -119.4992 161° South 374 430 35,000  Level Oakland Center
Wed 02:12:08 PM 39.6467 -119.4553 162° South 374 430 35,000  Level Oakland Center
Wed 02:13:08 PM 39.5481 -119.4144 162° South 374 430 35,000  Level Oakland Center
Wed 02:14:08 PM 39.4497 -119.3736 161° South 374 430 35,000  Level Oakland Center
Wed 02:15:08 PM 39.3511 -119.3300 162° South 374 430 35,000  Level Oakland Center
Wed 02:16:08 PM 39.2525 -119.2894 145° Southeast 374 430 35,000  Level Oakland Center
Wed 02:17:08 PM 39.1658 -119.2111 139° Southeast 374 430 35,000  Level Oakland Center
Wed 02:18:08 PM 39.0831 -119.1194 140° Southeast 380 437 35,000  Level Oakland Center
Wed 02:19:08 PM 39.0067 -119.0361 140° Southeast 391 450 35,000  Level Oakland Center
Wed 02:20:08 PM 38.9258 -118.9475 140° Southeast 391 450 35,000  Level Oakland Center
Wed 02:21:08 PM 38.8431 -118.8592 140° Southeast 391 450 35,000  Level Oakland Center
Wed 02:22:08 PM 38.7622 -118.7708 140° Southeast 391 450 35,000  Level Oakland Center
Wed 02:23:08 PM 38.6792 -118.6831 140° Southeast 386 444 35,000  Level Oakland Center
Wed 02:24:08 PM 38.5961 -118.5953 140° Southeast 386 444 35,000  Level Oakland Center
Wed 02:25:09 PM 38.5128 -118.5050 140° Southeast 386 444 35,000  Level Oakland Center
Wed 02:26:08 PM 38.4317 -118.4178 141° Southeast 386 444 35,000  Level Oakland Center
Wed 02:27:08 PM 38.3464 -118.3306 139° Southeast 386 444 35,000  Level Oakland Center
Wed 02:28:08 PM 38.2650 -118.2411 142° Southeast 386 444 35,000  Level Oakland Center
Wed 02:29:09 PM 38.1817 -118.1569 140° Southeast 386 444 35,000  Level Oakland Center
Wed 02:30:08 PM 38.0917 -118.0600 141° Southeast 386 444 35,000  Level Oakland Center
Wed 02:31:08 PM 38.0083 -117.9739 142° Southeast 386 444 35,000  Level Oakland Center
Wed 02:32:09 PM 37.9247 -117.8903 140° Southeast 386 444 35,000 -350 Level Oakland Center
Wed 02:33:08 PM 37.8411 -117.8017 141° Southeast 386 444 34,300 -807 Descending Oakland Center
Wed 02:34:08 PM 37.7550 -117.7133 141° Southeast 386 444 33,400 -650 Descending Oakland Center
Wed 02:35:08 PM 37.6692 -117.6256 141° Southeast 386 444 33,000 -126 Descending Oakland Center
Wed 02:37:18 PM 37.4831 -117.4369 141° Southeast 389 448 33,000  Level Los Center
Wed 02:38:18 PM 37.3967 -117.3494 142° Southeast 394 453 33,000  Level Los Center
Wed 02:39:18 PM 37.3097 -117.2644 141° Southeast 394 453 33,000  Level Los Center
Wed 02:40:18 PM 37.2250 -117.1772 142° Southeast 394 453 33,000  Level Los Center
Wed 02:41:18 PM 37.1403 -117.0928 141° Southeast 389 448 33,000  Level Los Center
Wed 02:42:18 PM 37.0575 -117.0083 141° Southeast 389 448 33,000  Level Los Center
Wed 02:43:18 PM 36.9728 -116.9217 144° Southeast 389 448 33,000  Level Los Center
Wed 02:44:18 PM 36.9042 -116.8586 140° Southeast 389 448 33,000 -300 Level Los Center
Wed 02:45:18 PM 36.8028 -116.7539 131° Southeast 389 448 32,400 -900 Descending Los Center
Wed 02:46:18 PM 36.7303 -116.6497 133° Southeast 389 448 31,200 -1,400 Descending Los Center
Wed 02:47:18 PM 36.6700 -116.5692 131° Southeast 394 453 29,600 -1,950 Descending Los Center
Wed 02:48:18 PM 36.5972 -116.4653 129° Southeast 394 453 27,300 -2,500 Descending Los Center
Wed 02:49:18 PM 36.5122 -116.3358 132° Southeast 400 460 24,600 -2,450 Descending Los Center
Wed 02:50:18 PM 36.4392 -116.2347 133° Southeast 405 466 22,400 -1,950 Descending Los Center
Wed 02:51:18 PM 36.3767 -116.1522 132° Southeast 388 447 20,700 -1,900 Descending Los Center
Wed 02:52:18 PM 36.3100 -116.0594 131° Southeast 377 434 18,600 -2,200 Descending Los Center
Wed 02:53:18 PM 36.2369 -115.9564 130° Southeast 368 423 16,300 -1,642 Descending Los Center
Wed 02:53:53 PM 36.1992 -115.9000 112° Southeast 347 399 16,000 -286 Descending Los Center
Wed 02:54:42 PM 36.1719 -115.8178 109° East 333 383 15,900  Descending Los Center
Wed 02:55:18 PM 36.1531 -115.7508 115° Southeast 335 386 16,000 -269 Climbing Los Center
Wed 02:55:49 PM 36.1319 -115.6944 110° East 336 387 15,600 -1,435 Descending Los Center
Wed 02:56:50 PM 36.1003 -115.5892 112° Southeast 335 386 13,800 -1,672 Descending Los Center
Wed 02:57:51 PM 36.0664 -115.4867 111° Southeast 328 377 12,200 -1,377 Descending Los Center
Wed 02:58:52 PM 36.0344 -115.3817 97° East 318 366 11,000 -1,087 Descending Los Center
Wed 02:59:58 PM 36.0233 -115.2714 96° East 280 322 9,900 -1,041 Descending Los Center
Wed 03:00:53 PM 36.0164 -115.1842 95° East 282 325 8,900 -984 Descending Los Center
Wed 03:02:00 PM 36.0094 -115.0814 94° East 268 308 7,900 -1,119 Descending Los Center
Wed 03:03:07 PM 36.0042 -114.9789 84° East 275 316 6,400 -724 Descending Los Center
Wed 03:03:56 PM 36.0100 -114.9094 348° North 255 293 6,500 -600 Climbing Los Center
Wed 03:04:57 PM 36.0642 -114.9242 278° West 211 243 5,300 -1,099 Descending Los Center
Wed 03:06:18 PM 36.0733 -115.0036 271° West 102 117 3,900 -936 Descending Los Center
Wed 03:07:18 PM 36.0739 -115.0600 271° West 142 163 3,100 -850 Descending Los Center
Wed 03:08:11 PM 36.0744 -115.1167 271° West 150 173 2,300 -500 Descending Los Center
Wed 03:09:18 PM 36.0747 -115.1500 279° West 145 167 2,100 -94 Descending Los Center
Wed 03:10:18 PM 36.0767 -115.1653 70° East 82 94 2,100 -50 Level Los Center
Wed 03:11:18 PM 36.0789 -115.1578 270° West 48 55 2,000 250 Descending Los Center
Wed 03:12:18 PM 36.0789 -115.1756 93° East 48 55 2,600 600 Climbing Los Center
Wed 03:20:15 PM 36.0667 -114.8560 270° West  Level FlightAware
Wed 03:21:15 PM 36.0667 -114.9834 270° West  Level FlightAware
Wed 03:22:15 PM 36.0667 -115.1108 270° West  Level FlightAware

Login

Don't have an account? Register now (free) for customized features, flight alerts, and more!